sensor_id;sensor_type;location;lat;lon;timestamp;temperature;humidity
63966;DHT22;50151;52.030;5.350;2022-10-16T08:57:06;14.30;98.70
63966;DHT22;50151;52.030;5.350;2022-10-16T08:59:35;14.40;98.80
63966;DHT22;50151;52.030;5.350;2022-10-16T09:02:23;14.40;98.30
63966;DHT22;50151;52.030;5.350;2022-10-16T09:10:56;14.60;98.60
63966;DHT22;50151;52.030;5.350;2022-10-16T09:16:08;14.70;97.80
63966;DHT22;50151;52.030;5.350;2022-10-16T09:21:36;14.90;97.10
63966;DHT22;50151;52.030;5.350;2022-10-16T09:24:16;14.90;97.00
63966;DHT22;50151;52.030;5.350;2022-10-16T09:26:46;14.90;97.20
63966;DHT22;50151;52.030;5.350;2022-10-16T09:29:15;15.10;97.40
63966;DHT22;50151;52.030;5.350;2022-10-16T09:31:42;15.20;97.50
63966;DHT22;50151;52.030;5.350;2022-10-16T09:36:46;15.40;97.00
63966;DHT22;50151;52.030;5.350;2022-10-16T09:39:13;15.50;96.90
63966;DHT22;50151;52.030;5.350;2022-10-16T09:41:43;15.40;95.40
63966;DHT22;50151;52.030;5.350;2022-10-16T09:44:26;15.40;95.50
63966;DHT22;50151;52.030;5.350;2022-10-16T09:47:16;15.50;95.20
63966;DHT22;50151;52.030;5.350;2022-10-16T09:49:55;15.60;94.80
63966;DHT22;50151;52.030;5.350;2022-10-16T09:52:24;15.50;94.40
63966;DHT22;50151;52.030;5.350;2022-10-16T09:55:00;15.60;94.40
63966;DHT22;50151;52.030;5.350;2022-10-16T09:57:27;15.70;94.40
63966;DHT22;50151;52.030;5.350;2022-10-16T09:59:58;15.90;94.40
63966;DHT22;50151;52.030;5.350;2022-10-16T10:02:35;15.90;93.90
63966;DHT22;50151;52.030;5.350;2022-10-16T10:05:04;15.80;93.50
63966;DHT22;50151;52.030;5.350;2022-10-16T10:07:35;15.80;92.70
63966;DHT22;50151;52.030;5.350;2022-10-16T10:10:05;15.90;92.60
63966;DHT22;50151;52.030;5.350;2022-10-16T10:12:33;16.10;92.80
63966;DHT22;50151;52.030;5.350;2022-10-16T10:15:13;16.20;91.40
63966;DHT22;50151;52.030;5.350;2022-10-16T10:17:52;16.30;92.00
63966;DHT22;50151;52.030;5.350;2022-10-16T10:20:31;16.30;91.70
63966;DHT22;50151;52.030;5.350;2022-10-16T10:23:23;16.30;90.60
63966;DHT22;50151;52.030;5.350;2022-10-16T10:31:34;16.00;91.40
63966;DHT22;50151;52.030;5.350;2022-10-16T10:40:15;16.50;88.60
63966;DHT22;50151;52.030;5.350;2022-10-16T10:45:53;16.70;89.00
63966;DHT22;50151;52.030;5.350;2022-10-16T10:51:47;16.70;88.00
63966;DHT22;50151;52.030;5.350;2022-10-16T10:54:59;16.90;87.60
63966;DHT22;50151;52.030;5.350;2022-10-16T10:57:24;16.90;86.80
63966;DHT22;50151;52.030;5.350;2022-10-16T11:02:48;17.30;85.40
63966;DHT22;50151;52.030;5.350;2022-10-16T11:07:59;17.10;82.80
63966;DHT22;50151;52.030;5.350;2022-10-16T11:11:40;16.90;81.80
63966;DHT22;50151;52.030;5.350;2022-10-16T11:14:04;17.20;81.70
63966;DHT22;50151;52.030;5.350;2022-10-16T11:16:45;17.40;81.90
63966;DHT22;50151;52.030;5.350;2022-10-16T11:19:22;17.40;82.80
63966;DHT22;50151;52.030;5.350;2022-10-16T11:22:13;17.60;80.70
63966;DHT22;50151;52.030;5.350;2022-10-16T11:24:51;17.50;79.20
63966;DHT22;50151;52.030;5.350;2022-10-16T11:27:34;17.50;80.30
63966;DHT22;50151;52.030;5.350;2022-10-16T11:30:06;17.50;79.10
63966;DHT22;50151;52.030;5.350;2022-10-16T11:35:39;17.60;78.40
63966;DHT22;50151;52.030;5.350;2022-10-16T11:38:26;17.90;78.80
63966;DHT22;50151;52.030;5.350;2022-10-16T11:41:03;17.90;78.50
63966;DHT22;50151;52.030;5.350;2022-10-16T11:43:37;17.90;76.70
63966;DHT22;50151;52.030;5.350;2022-10-16T11:46:12;17.80;74.30
63966;DHT22;50151;52.030;5.350;2022-10-16T11:48:45;17.70;75.80
63966;DHT22;50151;52.030;5.350;2022-10-16T11:51:15;17.80;77.10
63966;DHT22;50151;52.030;5.350;2022-10-16T11:56:21;17.50;77.60
63966;DHT22;50151;52.030;5.350;2022-10-16T11:59:13;17.60;78.20
63966;DHT22;50151;52.030;5.350;2022-10-16T12:01:51;17.90;75.90
63966;DHT22;50151;52.030;5.350;2022-10-16T12:04:31;18.10;73.90
63966;DHT22;50151;52.030;5.350;2022-10-16T12:07:07;18.00;71.90
63966;DHT22;50151;52.030;5.350;2022-10-16T12:09:38;17.60;74.20
63966;DHT22;50151;52.030;5.350;2022-10-16T12:12:36;17.40;75.90
63966;DHT22;50151;52.030;5.350;2022-10-16T12:15:28;17.30;76.70
63966;DHT22;50151;52.030;5.350;2022-10-16T12:18:22;17.20;76.30
63966;DHT22;50151;52.030;5.350;2022-10-16T12:20:58;17.50;73.20
63966;DHT22;50151;52.030;5.350;2022-10-16T12:23:31;17.90;70.40
63966;DHT22;50151;52.030;5.350;2022-10-16T12:26:00;18.30;69.50
63966;DHT22;50151;52.030;5.350;2022-10-16T12:28:30;18.10;69.40
63966;DHT22;50151;52.030;5.350;2022-10-16T12:31:03;18.50;70.30
63966;DHT22;50151;52.030;5.350;2022-10-16T12:33:36;18.80;70.00
63966;DHT22;50151;52.030;5.350;2022-10-16T12:36:13;18.30;72.20
63966;DHT22;50151;52.030;5.350;2022-10-16T12:38:49;18.70;72.30
63966;DHT22;50151;52.030;5.350;2022-10-16T12:41:34;19.00;71.30
63966;DHT22;50151;52.030;5.350;2022-10-16T12:44:02;19.30;72.30
63966;DHT22;50151;52.030;5.350;2022-10-16T12:51:42;18.60;72.10
63966;DHT22;50151;52.030;5.350;2022-10-16T12:54:22;18.60;72.00
63966;DHT22;50151;52.030;5.350;2022-10-16T13:02:56;19.40;66.60
63966;DHT22;50151;52.030;5.350;2022-10-16T13:05:41;19.80;64.40
63966;DHT22;50151;52.030;5.350;2022-10-16T13:16:50;20.00;63.30
63966;DHT22;50151;52.030;5.350;2022-10-16T13:19:35;20.30;64.70
63966;DHT22;50151;52.030;5.350;2022-10-16T13:27:54;20.10;63.70
63966;DHT22;50151;52.030;5.350;2022-10-16T13:30:34;19.90;63.40
63966;DHT22;50151;52.030;5.350;2022-10-16T13:33:07;20.10;63.70
63966;DHT22;50151;52.030;5.350;2022-10-16T13:35:51;20.00;64.00
63966;DHT22;50151;52.030;5.350;2022-10-16T13:38:21;19.80;63.70
63966;DHT22;50151;52.030;5.350;2022-10-16T13:43:49;19.70;65.00
63966;DHT22;50151;52.030;5.350;2022-10-16T13:46:19;19.60;64.60
63966;DHT22;50151;52.030;5.350;2022-10-16T13:49:00;19.40;64.80
63966;DHT22;50151;52.030;5.350;2022-10-16T13:51:29;19.40;65.40
63966;DHT22;50151;52.030;5.350;2022-10-16T13:53:57;19.50;66.30
63966;DHT22;50151;52.030;5.350;2022-10-16T13:56:30;19.50;67.50
63966;DHT22;50151;52.030;5.350;2022-10-16T13:59:20;19.50;67.00
63966;DHT22;50151;52.030;5.350;2022-10-16T14:01:48;19.10;66.60
63966;DHT22;50151;52.030;5.350;2022-10-16T14:04:16;19.30;68.10
63966;DHT22;50151;52.030;5.350;2022-10-16T14:06:45;19.20;67.70
63966;DHT22;50151;52.030;5.350;2022-10-16T14:12:01;19.40;67.70
63966;DHT22;50151;52.030;5.350;2022-10-16T14:14:43;19.30;69.30
63966;DHT22;50151;52.030;5.350;2022-10-16T14:17:23;19.20;68.80
63966;DHT22;50151;52.030;5.350;2022-10-16T14:19:53;19.10;69.90
63966;DHT22;50151;52.030;5.350;2022-10-16T14:22:38;19.10;69.40
63966;DHT22;50151;52.030;5.350;2022-10-16T14:27:56;19.10;69.40
63966;DHT22;50151;52.030;5.350;2022-10-16T14:30:23;19.00;69.50
63966;DHT22;50151;52.030;5.350;2022-10-16T14:33:18;19.10;70.00
63966;DHT22;50151;52.030;5.350;2022-10-16T14:35:44;19.20;69.90
63966;DHT22;50151;52.030;5.350;2022-10-16T14:38:19;19.00;69.60
63966;DHT22;50151;52.030;5.350;2022-10-16T14:40:49;19.00;70.20
63966;DHT22;50151;52.030;5.350;2022-10-16T14:43:36;18.90;70.40
63966;DHT22;50151;52.030;5.350;2022-10-16T14:46:10;18.80;70.10
63966;DHT22;50151;52.030;5.350;2022-10-16T14:48:42;18.70;71.90
63966;DHT22;50151;52.030;5.350;2022-10-16T14:51:14;18.70;71.10
63966;DHT22;50151;52.030;5.350;2022-10-16T14:53:41;18.80;71.50
63966;DHT22;50151;52.030;5.350;2022-10-16T14:56:14;18.80;73.60
63966;DHT22;50151;52.030;5.350;2022-10-16T14:58:44;18.80;73.90
63966;DHT22;50151;52.030;5.350;2022-10-16T15:01:11;18.80;72.70
63966;DHT22;50151;52.030;5.350;2022-10-16T15:03:38;18.80;74.90
63966;DHT22;50151;52.030;5.350;2022-10-16T15:06:11;18.80;72.60
63966;DHT22;50151;52.030;5.350;2022-10-16T15:08:41;18.80;74.70
63966;DHT22;50151;52.030;5.350;2022-10-16T15:11:14;18.80;75.70
63966;DHT22;50151;52.030;5.350;2022-10-16T15:13:41;18.60;76.90
63966;DHT22;50151;52.030;5.350;2022-10-16T15:16:11;18.60;74.30
63966;DHT22;50151;52.030;5.350;2022-10-16T15:18:38;18.60;73.40
63966;DHT22;50151;52.030;5.350;2022-10-16T15:21:05;18.60;75.50
63966;DHT22;50151;52.030;5.350;2022-10-16T15:23:32;18.50;81.80
63966;DHT22;50151;52.030;5.350;2022-10-16T15:26:00;18.50;83.30
63966;DHT22;50151;52.030;5.350;2022-10-16T15:28:27;18.30;84.60
63966;DHT22;50151;52.030;5.350;2022-10-16T15:30:56;18.10;85.40
63966;DHT22;50151;52.030;5.350;2022-10-16T15:33:25;18.10;86.10
63966;DHT22;50151;52.030;5.350;2022-10-16T15:35:55;18.00;86.70
63966;DHT22;50151;52.030;5.350;2022-10-16T15:38:22;18.00;86.00
63966;DHT22;50151;52.030;5.350;2022-10-16T15:40:50;18.00;86.80
63966;DHT22;50151;52.030;5.350;2022-10-16T15:43:17;17.90;87.10
63966;DHT22;50151;52.030;5.350;2022-10-16T15:45:59;17.80;88.10
63966;DHT22;50151;52.030;5.350;2022-10-16T15:48:28;17.70;88.80
63966;DHT22;50151;52.030;5.350;2022-10-16T15:50:55;17.70;89.80
63966;DHT22;50151;52.030;5.350;2022-10-16T15:53:22;17.60;88.80
63966;DHT22;50151;52.030;5.350;2022-10-16T15:55:49;17.40;90.20
63966;DHT22;50151;52.030;5.350;2022-10-16T15:58:16;17.40;90.70
63966;DHT22;50151;52.030;5.350;2022-10-16T16:00:43;17.30;91.00
63966;DHT22;50151;52.030;5.350;2022-10-16T16:03:09;17.30;91.20
63966;DHT22;50151;52.030;5.350;2022-10-16T16:05:39;17.30;91.50
63966;DHT22;50151;52.030;5.350;2022-10-16T16:08:12;17.30;91.70
63966;DHT22;50151;52.030;5.350;2022-10-16T16:10:38;17.20;91.70
63966;DHT22;50151;52.030;5.350;2022-10-16T16:13:05;17.10;92.30
63966;DHT22;50151;52.030;5.350;2022-10-16T16:15:32;17.00;92.80
63966;DHT22;50151;52.030;5.350;2022-10-16T16:17:58;17.00;93.00
63966;DHT22;50151;52.030;5.350;2022-10-16T16:20:25;16.90;93.20
63966;DHT22;50151;52.030;5.350;2022-10-16T16:22:52;16.80;93.10
63966;DHT22;50151;52.030;5.350;2022-10-16T16:25:18;16.90;93.10
63966;DHT22;50151;52.030;5.350;2022-10-16T16:27:45;16.80;93.00
63966;DHT22;50151;52.030;5.350;2022-10-16T16:30:12;16.80;92.70
63966;DHT22;50151;52.030;5.350;2022-10-16T16:32:45;16.60;93.10
63966;DHT22;50151;52.030;5.350;2022-10-16T16:35:12;16.60;93.40
63966;DHT22;50151;52.030;5.350;2022-10-16T16:37:38;16.50;93.70
63966;DHT22;50151;52.030;5.350;2022-10-16T16:40:05;16.50;93.60
63966;DHT22;50151;52.030;5.350;2022-10-16T16:42:32;16.50;94.20
63966;DHT22;50151;52.030;5.350;2022-10-16T16:44:58;16.50;93.70
63966;DHT22;50151;52.030;5.350;2022-10-16T16:47:25;16.40;93.80
63966;DHT22;50151;52.030;5.350;2022-10-16T16:49:52;16.40;93.80
63966;DHT22;50151;52.030;5.350;2022-10-16T16:52:19;16.30;93.40
63966;DHT22;50151;52.030;5.350;2022-10-16T16:54:47;16.20;93.50
63966;DHT22;50151;52.030;5.350;2022-10-16T16:57:19;16.20;93.90
63966;DHT22;50151;52.030;5.350;2022-10-16T16:59:46;16.20;94.00
63966;DHT22;50151;52.030;5.350;2022-10-16T17:02:12;16.10;94.10
63966;DHT22;50151;52.030;5.350;2022-10-16T17:04:39;16.10;93.90
63966;DHT22;50151;52.030;5.350;2022-10-16T17:07:06;16.00;94.00
63966;DHT22;50151;52.030;5.350;2022-10-16T17:09:33;16.00;94.30
63966;DHT22;50151;52.030;5.350;2022-10-16T17:12:00;15.90;94.40
63966;DHT22;50151;52.030;5.350;2022-10-16T17:14:26;15.90;94.40
63966;DHT22;50151;52.030;5.350;2022-10-16T17:16:53;15.90;94.70
63966;DHT22;50151;52.030;5.350;2022-10-16T17:19:19;15.80;94.80
63966;DHT22;50151;52.030;5.350;2022-10-16T17:21:50;15.80;95.10
63966;DHT22;50151;52.030;5.350;2022-10-16T17:24:18;15.70;95.20
63966;DHT22;50151;52.030;5.350;2022-10-16T17:26:46;15.70;95.00
63966;DHT22;50151;52.030;5.350;2022-10-16T17:29:16;15.60;95.20
63966;DHT22;50151;52.030;5.350;2022-10-16T17:31:44;15.60;95.10
63966;DHT22;50151;52.030;5.350;2022-10-16T17:34:11;15.60;95.40
63966;DHT22;50151;52.030;5.350;2022-10-16T17:36:38;15.60;95.20
63966;DHT22;50151;52.030;5.350;2022-10-16T17:39:12;15.50;95.00
63966;DHT22;50151;52.030;5.350;2022-10-16T17:41:39;15.50;95.30
63966;DHT22;50151;52.030;5.350;2022-10-16T17:44:06;15.50;95.10
63966;DHT22;50151;52.030;5.350;2022-10-16T17:46:33;15.50;94.30
63966;DHT22;50151;52.030;5.350;2022-10-16T17:49:06;15.50;94.00
63966;DHT22;50151;52.030;5.350;2022-10-16T17:51:33;15.50;94.30
63966;DHT22;50151;52.030;5.350;2022-10-16T17:54:01;15.50;94.70
63966;DHT22;50151;52.030;5.350;2022-10-16T17:56:28;15.40;94.60
63966;DHT22;50151;52.030;5.350;2022-10-16T17:58:59;15.40;94.90
63966;DHT22;50151;52.030;5.350;2022-10-16T18:01:30;15.40;95.10
63966;DHT22;50151;52.030;5.350;2022-10-16T18:04:02;15.30;94.80
63966;DHT22;50151;52.030;5.350;2022-10-16T18:06:30;15.30;95.00
63966;DHT22;50151;52.030;5.350;2022-10-16T18:08:58;15.30;94.50
63966;DHT22;50151;52.030;5.350;2022-10-16T18:11:25;15.30;94.80
63966;DHT22;50151;52.030;5.350;2022-10-16T18:13:53;15.30;94.90
63966;DHT22;50151;52.030;5.350;2022-10-16T18:16:22;15.20;95.50
63966;DHT22;50151;52.030;5.350;2022-10-16T18:18:49;15.30;94.80
63966;DHT22;50151;52.030;5.350;2022-10-16T18:21:18;15.20;94.60
63966;DHT22;50151;52.030;5.350;2022-10-16T18:23:46;15.20;95.00
63966;DHT22;50151;52.030;5.350;2022-10-16T18:26:18;15.20;95.40
63966;DHT22;50151;52.030;5.350;2022-10-16T18:28:46;15.20;95.00
63966;DHT22;50151;52.030;5.350;2022-10-16T18:31:15;15.20;94.90
63966;DHT22;50151;52.030;5.350;2022-10-16T18:33:43;15.20;95.40
63966;DHT22;50151;52.030;5.350;2022-10-16T18:36:16;15.20;95.00
63966;DHT22;50151;52.030;5.350;2022-10-16T18:38:44;15.10;95.60
63966;DHT22;50151;52.030;5.350;2022-10-16T18:41:11;15.10;95.70
63966;DHT22;50151;52.030;5.350;2022-10-16T18:43:39;15.20;96.00
63966;DHT22;50151;52.030;5.350;2022-10-16T18:46:11;15.10;96.10
63966;DHT22;50151;52.030;5.350;2022-10-16T18:48:42;15.20;96.20
63966;DHT22;50151;52.030;5.350;2022-10-16T18:53:37;15.10;96.10
63966;DHT22;50151;52.030;5.350;2022-10-16T18:56:05;15.00;96.80
63966;DHT22;50151;52.030;5.350;2022-10-16T18:58:35;15.00;96.90
63966;DHT22;50151;52.030;5.350;2022-10-16T19:01:09;15.00;96.80
63966;DHT22;50151;52.030;5.350;2022-10-16T19:03:42;15.00;97.10
63966;DHT22;50151;52.030;5.350;2022-10-16T19:06:11;15.00;97.00
63966;DHT22;50151;52.030;5.350;2022-10-16T19:08:38;14.90;97.10
63966;DHT22;50151;52.030;5.350;2022-10-16T19:11:08;14.90;97.10
63966;DHT22;50151;52.030;5.350;2022-10-16T19:13:35;14.90;97.60
63966;DHT22;50151;52.030;5.350;2022-10-16T19:16:03;14.90;97.90
63966;DHT22;50151;52.030;5.350;2022-10-16T19:18:49;14.90;98.00
63966;DHT22;50151;52.030;5.350;2022-10-16T19:21:16;14.90;97.50
63966;DHT22;50151;52.030;5.350;2022-10-16T19:23:44;14.90;97.30
63966;DHT22;50151;52.030;5.350;2022-10-16T19:26:16;14.90;97.30
63966;DHT22;50151;52.030;5.350;2022-10-16T19:28:44;14.90;98.10
63966;DHT22;50151;52.030;5.350;2022-10-16T19:31:15;14.90;97.70
63966;DHT22;50151;52.030;5.350;2022-10-16T19:33:42;14.90;98.10
63966;DHT22;50151;52.030;5.350;2022-10-16T19:36:14;14.90;98.30
63966;DHT22;50151;52.030;5.350;2022-10-16T19:38:43;14.90;98.40
63966;DHT22;50151;52.030;5.350;2022-10-16T19:41:12;14.90;98.20
63966;DHT22;50151;52.030;5.350;2022-10-16T19:43:39;14.90;98.30
63966;DHT22;50151;52.030;5.350;2022-10-16T19:46:09;14.90;98.40
63966;DHT22;50151;52.030;5.350;2022-10-16T19:48:36;14.90;98.70
63966;DHT22;50151;52.030;5.350;2022-10-16T19:51:04;14.90;99.00
63966;DHT22;50151;52.030;5.350;2022-10-16T19:53:31;14.80;98.90
63966;DHT22;50151;52.030;5.350;2022-10-16T19:55:58;14.80;99.40
63966;DHT22;50151;52.030;5.350;2022-10-16T19:58:26;14.80;99.80
63966;DHT22;50151;52.030;5.350;2022-10-16T20:00:53;14.80;99.70
63966;DHT22;50151;52.030;5.350;2022-10-16T20:03:20;14.80;99.90
63966;DHT22;50151;52.030;5.350;2022-10-16T20:05:52;14.80;99.90
63966;DHT22;50151;52.030;5.350;2022-10-16T20:08:19;14.80;99.90
63966;DHT22;50151;52.030;5.350;2022-10-16T20:10:50;14.70;99.90
63966;DHT22;50151;52.030;5.350;2022-10-16T20:13:18;14.70;99.90
63966;DHT22;50151;52.030;5.350;2022-10-16T20:15:46;14.70;99.90
63966;DHT22;50151;52.030;5.350;2022-10-16T20:18:13;14.80;99.90
63966;DHT22;50151;52.030;5.350;2022-10-16T20:20:43;14.80;99.90
63966;DHT22;50151;52.030;5.350;2022-10-16T20:23:10;14.80;99.90
63966;DHT22;50151;52.030;5.350;2022-10-16T20:25:39;14.80;99.90
63966;DHT22;50151;52.030;5.350;2022-10-16T20:28:08;14.80;99.90
63966;DHT22;50151;52.030;5.350;2022-10-16T20:30:39;14.80;99.90
63966;DHT22;50151;52.030;5.350;2022-10-16T20:33:06;14.70;99.90
63966;DHT22;50151;52.030;5.350;2022-10-16T20:35:38;14.70;99.90
63966;DHT22;50151;52.030;5.350;2022-10-16T20:38:06;14.70;99.90
63966;DHT22;50151;52.030;5.350;2022-10-16T20:40:34;14.70;99.90
63966;DHT22;50151;52.030;5.350;2022-10-16T20:43:01;14.70;99.90
63966;DHT22;50151;52.030;5.350;2022-10-16T20:45:28;14.70;99.90
63966;DHT22;50151;52.030;5.350;2022-10-16T20:47:55;14.70;99.90
63966;DHT22;50151;52.030;5.350;2022-10-16T20:50:22;14.70;99.90
63966;DHT22;50151;52.030;5.350;2022-10-16T20:52:49;14.80;99.90
63966;DHT22;50151;52.030;5.350;2022-10-16T20:55:15;14.70;99.90
63966;DHT22;50151;52.030;5.350;2022-10-16T20:57:43;14.70;99.90
63966;DHT22;50151;52.030;5.350;2022-10-16T21:00:10;14.80;99.90
63966;DHT22;50151;52.030;5.350;2022-10-16T21:02:37;14.80;99.90
63966;DHT22;50151;52.030;5.350;2022-10-16T21:05:04;14.80;99.90
